Portada
METAR-TAF:

METAR-TAF

Aeroports :

La Paz, Mèxic

latitud: 24-04N, longitud: 110-22W, altitud: 21 m

Observació

L'informe es va fer fa 1 hora i 50 minuts, a les 12:06 UTC
Vent 5 kt del Sud
Temperatura 23°C
Humitat 94%
Pressió 1009 hPa
Visibilitat: 16.1 km
Cel clar

METAR: MMLP 171206Z RTD 18005KT 10SM SKC 23/22 A2981 RMK SLP093 5//// 956 RTS

Hora: 07:56 (13:56 UTC)

Pronòstic

L'informe es va fer fa 9 hores i 47 minuts, a les 04:09 UTC
Pronòstic vàlid del 17 a les 06 UTC al 18 a les 06 UTC
Vent 5 kt del Sud
Visibilitat: 10 km
Núvols disperses a una alçada de 2000 ft
A partir de les 17 a les 1800 UTC
Vent 10 kt del Nord
Visibilitat: 10 km
Núvols disperses a una alçada de 2000 ft
A partir de les 18 a les 0300 UTC
Vent 5 kt del Sud
Visibilitat: 10 km
Cel clar

TAF: MMLP 170409Z 1706/1806 18005KT P6SM SCT020 FM171800 36010KT P6SM SCT020 FM180300 18005KT P6SM SKC

Observacions i pronòstics meteorològics de més de 4000 aeroports (METAR i TAF).

Les estacions disponibles són els punts grocs i vermells al mapa.

Posi el ratolí al punt desitjat per veure el nom de l'estació.

Feu clic per veure les observacions i els pronòstics meteorològics.

Per canviar el mapa: feu clic els botons verds amb una creu de color negre per apropar; al botó verd amb un guió per allunyar la imatge; o en les fletxes verdes per a mapes adjacents.


METAR-TAF: